sensor_id;sensor_type;location;lat;lon;timestamp;P1;durP1;ratioP1;P2;durP2;ratioP2
70920;SDS011;58572;48.110;19.838;2022-09-09T00:00:49;6.20;;;2.55;;
70920;SDS011;58572;48.110;19.838;2022-09-09T00:03:24;6.28;;;2.95;;
70920;SDS011;58572;48.110;19.838;2022-09-09T00:05:55;4.95;;;2.78;;
70920;SDS011;58572;48.110;19.838;2022-09-09T00:08:33;5.18;;;2.80;;
70920;SDS011;58572;48.110;19.838;2022-09-09T00:11:09;4.28;;;2.60;;
70920;SDS011;58572;48.110;19.838;2022-09-09T00:13:40;5.28;;;2.25;;
70920;SDS011;58572;48.110;19.838;2022-09-09T00:16:14;4.57;;;2.40;;
70920;SDS011;58572;48.110;19.838;2022-09-09T00:18:49;3.90;;;2.00;;
70920;SDS011;58572;48.110;19.838;2022-09-09T00:21:21;3.92;;;1.95;;
70920;SDS011;58572;48.110;19.838;2022-09-09T00:23:53;5.47;;;1.95;;
70920;SDS011;58572;48.110;19.838;2022-09-09T00:26:22;4.07;;;1.90;;
70920;SDS011;58572;48.110;19.838;2022-09-09T00:28:57;2.92;;;1.63;;
70920;SDS011;58572;48.110;19.838;2022-09-09T00:31:31;4.13;;;1.90;;
70920;SDS011;58572;48.110;19.838;2022-09-09T00:34:00;6.97;;;1.90;;
70920;SDS011;58572;48.110;19.838;2022-09-09T00:36:36;3.00;;;1.70;;
70920;SDS011;58572;48.110;19.838;2022-09-09T00:39:04;3.38;;;1.85;;
70920;SDS011;58572;48.110;19.838;2022-09-09T00:41:39;3.22;;;1.98;;
70920;SDS011;58572;48.110;19.838;2022-09-09T00:44:20;3.28;;;1.70;;
70920;SDS011;58572;48.110;19.838;2022-09-09T00:49:53;3.38;;;1.50;;
70920;SDS011;58572;48.110;19.838;2022-09-09T00:55:03;4.55;;;1.33;;
70920;SDS011;58572;48.110;19.838;2022-09-09T00:57:36;3.65;;;1.60;;
70920;SDS011;58572;48.110;19.838;2022-09-09T01:00:22;3.38;;;1.40;;
70920;SDS011;58572;48.110;19.838;2022-09-09T01:05:48;3.15;;;1.52;;
70920;SDS011;58572;48.110;19.838;2022-09-09T01:08:30;4.72;;;1.60;;
70920;SDS011;58572;48.110;19.838;2022-09-09T01:11:10;3.10;;;1.40;;
70920;SDS011;58572;48.110;19.838;2022-09-09T01:13:47;2.83;;;1.70;;
70920;SDS011;58572;48.110;19.838;2022-09-09T01:16:20;2.83;;;1.60;;
70920;SDS011;58572;48.110;19.838;2022-09-09T01:21:19;3.90;;;1.70;;
70920;SDS011;58572;48.110;19.838;2022-09-09T01:24:00;5.03;;;1.40;;
70920;SDS011;58572;48.110;19.838;2022-09-09T01:26:42;3.83;;;1.80;;
70920;SDS011;58572;48.110;19.838;2022-09-09T01:29:11;4.13;;;2.00;;
70920;SDS011;58572;48.110;19.838;2022-09-09T01:31:40;2.88;;;1.80;;
70920;SDS011;58572;48.110;19.838;2022-09-09T01:34:10;4.40;;;1.80;;
70920;SDS011;58572;48.110;19.838;2022-09-09T01:36:39;3.95;;;1.77;;
70920;SDS011;58572;48.110;19.838;2022-09-09T01:39:10;5.47;;;2.00;;
70920;SDS011;58572;48.110;19.838;2022-09-09T01:41:39;4.28;;;2.25;;
70920;SDS011;58572;48.110;19.838;2022-09-09T01:44:08;4.90;;;1.95;;
70920;SDS011;58572;48.110;19.838;2022-09-09T01:46:36;3.90;;;2.08;;
70920;SDS011;58572;48.110;19.838;2022-09-09T01:49:03;5.70;;;2.40;;
70920;SDS011;58572;48.110;19.838;2022-09-09T01:51:33;6.13;;;2.40;;
70920;SDS011;58572;48.110;19.838;2022-09-09T01:54:01;5.40;;;2.33;;
70920;SDS011;58572;48.110;19.838;2022-09-09T01:56:33;6.32;;;2.30;;
70920;SDS011;58572;48.110;19.838;2022-09-09T01:59:11;7.78;;;2.72;;
70920;SDS011;58572;48.110;19.838;2022-09-09T02:01:54;5.07;;;2.75;;
70920;SDS011;58572;48.110;19.838;2022-09-09T02:04:34;5.68;;;2.67;;
70920;SDS011;58572;48.110;19.838;2022-09-09T02:07:06;8.05;;;3.08;;
70920;SDS011;58572;48.110;19.838;2022-09-09T02:09:44;7.18;;;2.55;;
70920;SDS011;58572;48.110;19.838;2022-09-09T02:12:16;6.28;;;2.80;;
70920;SDS011;58572;48.110;19.838;2022-09-09T02:14:49;9.27;;;3.47;;
70920;SDS011;58572;48.110;19.838;2022-09-09T02:17:22;9.10;;;3.47;;
70920;SDS011;58572;48.110;19.838;2022-09-09T02:19:54;6.75;;;3.13;;
70920;SDS011;58572;48.110;19.838;2022-09-09T02:22:27;8.13;;;4.10;;
70920;SDS011;58572;48.110;19.838;2022-09-09T02:25:00;7.43;;;3.88;;
70920;SDS011;58572;48.110;19.838;2022-09-09T02:27:30;7.95;;;4.18;;
70920;SDS011;58572;48.110;19.838;2022-09-09T02:29:59;8.43;;;4.35;;
70920;SDS011;58572;48.110;19.838;2022-09-09T02:32:27;8.85;;;4.65;;
70920;SDS011;58572;48.110;19.838;2022-09-09T02:34:57;8.57;;;4.32;;
70920;SDS011;58572;48.110;19.838;2022-09-09T02:37:30;7.53;;;4.03;;
70920;SDS011;58572;48.110;19.838;2022-09-09T02:40:02;7.80;;;3.85;;
70920;SDS011;58572;48.110;19.838;2022-09-09T02:42:29;7.28;;;3.53;;
70920;SDS011;58572;48.110;19.838;2022-09-09T02:44:56;7.53;;;3.70;;
70920;SDS011;58572;48.110;19.838;2022-09-09T02:50:07;10.82;;;4.10;;
70920;SDS011;58572;48.110;19.838;2022-09-09T02:52:42;6.50;;;3.22;;
70920;SDS011;58572;48.110;19.838;2022-09-09T02:55:18;9.93;;;3.67;;
70920;SDS011;58572;48.110;19.838;2022-09-09T02:57:51;9.38;;;3.65;;
70920;SDS011;58572;48.110;19.838;2022-09-09T03:00:24;9.80;;;3.50;;
70920;SDS011;58572;48.110;19.838;2022-09-09T03:02:54;7.55;;;3.58;;
70920;SDS011;58572;48.110;19.838;2022-09-09T03:05:22;8.00;;;3.50;;
70920;SDS011;58572;48.110;19.838;2022-09-09T03:07:50;8.55;;;3.33;;
70920;SDS011;58572;48.110;19.838;2022-09-09T03:10:17;6.85;;;3.65;;
70920;SDS011;58572;48.110;19.838;2022-09-09T03:12:44;6.53;;;3.58;;
70920;SDS011;58572;48.110;19.838;2022-09-09T03:15:12;6.38;;;3.20;;
70920;SDS011;58572;48.110;19.838;2022-09-09T03:17:39;7.53;;;3.53;;
70920;SDS011;58572;48.110;19.838;2022-09-09T03:20:09;6.55;;;3.38;;
70920;SDS011;58572;48.110;19.838;2022-09-09T03:22:36;8.23;;;3.90;;
70920;SDS011;58572;48.110;19.838;2022-09-09T03:25:04;6.93;;;3.28;;
70920;SDS011;58572;48.110;19.838;2022-09-09T03:27:32;10.45;;;3.83;;
70920;SDS011;58572;48.110;19.838;2022-09-09T03:29:59;7.55;;;3.35;;
70920;SDS011;58572;48.110;19.838;2022-09-09T03:32:29;9.45;;;3.20;;
70920;SDS011;58572;48.110;19.838;2022-09-09T03:34:56;9.07;;;3.20;;
70920;SDS011;58572;48.110;19.838;2022-09-09T03:37:25;6.88;;;3.40;;
70920;SDS011;58572;48.110;19.838;2022-09-09T03:39:52;7.20;;;4.32;;
70920;SDS011;58572;48.110;19.838;2022-09-09T03:42:20;8.60;;;4.15;;
70920;SDS011;58572;48.110;19.838;2022-09-09T03:47:16;7.85;;;3.65;;
70920;SDS011;58572;48.110;19.838;2022-09-09T03:49:44;9.38;;;4.05;;
70920;SDS011;58572;48.110;19.838;2022-09-09T03:52:11;7.00;;;3.65;;
70920;SDS011;58572;48.110;19.838;2022-09-09T03:57:08;10.40;;;4.63;;
70920;SDS011;58572;48.110;19.838;2022-09-09T03:59:35;8.73;;;4.40;;
70920;SDS011;58572;48.110;19.838;2022-09-09T04:02:03;8.68;;;4.43;;
70920;SDS011;58572;48.110;19.838;2022-09-09T04:06:57;10.57;;;5.32;;
70920;SDS011;58572;48.110;19.838;2022-09-09T04:09:24;12.55;;;5.10;;
70920;SDS011;58572;48.110;19.838;2022-09-09T04:11:53;10.55;;;4.88;;
70920;SDS011;58572;48.110;19.838;2022-09-09T04:14:20;8.57;;;4.30;;
70920;SDS011;58572;48.110;19.838;2022-09-09T04:16:47;9.43;;;5.28;;
70920;SDS011;58572;48.110;19.838;2022-09-09T04:19:14;10.63;;;5.10;;
70920;SDS011;58572;48.110;19.838;2022-09-09T04:21:41;10.23;;;5.20;;
70920;SDS011;58572;48.110;19.838;2022-09-09T04:24:09;12.77;;;4.97;;
70920;SDS011;58572;48.110;19.838;2022-09-09T04:26:36;13.25;;;5.57;;
70920;SDS011;58572;48.110;19.838;2022-09-09T04:29:05;9.88;;;4.70;;
70920;SDS011;58572;48.110;19.838;2022-09-09T04:31:32;13.15;;;5.72;;
70920;SDS011;58572;48.110;19.838;2022-09-09T04:33:59;10.88;;;5.30;;
70920;SDS011;58572;48.110;19.838;2022-09-09T04:36:30;11.00;;;5.30;;
70920;SDS011;58572;48.110;19.838;2022-09-09T04:38:58;13.73;;;5.07;;
70920;SDS011;58572;48.110;19.838;2022-09-09T04:41:26;10.00;;;5.07;;
70920;SDS011;58572;48.110;19.838;2022-09-09T04:43:54;11.35;;;4.75;;
70920;SDS011;58572;48.110;19.838;2022-09-09T04:46:22;10.77;;;4.95;;
70920;SDS011;58572;48.110;19.838;2022-09-09T04:48:50;7.13;;;4.10;;
70920;SDS011;58572;48.110;19.838;2022-09-09T04:53:45;8.00;;;3.47;;
70920;SDS011;58572;48.110;19.838;2022-09-09T04:56:14;8.32;;;3.50;;
70920;SDS011;58572;48.110;19.838;2022-09-09T04:58:42;9.75;;;5.45;;
70920;SDS011;58572;48.110;19.838;2022-09-09T05:01:11;10.57;;;5.45;;
70920;SDS011;58572;48.110;19.838;2022-09-09T05:03:41;8.75;;;4.40;;
70920;SDS011;58572;48.110;19.838;2022-09-09T05:06:11;12.07;;;3.90;;
70920;SDS011;58572;48.110;19.838;2022-09-09T05:08:40;8.73;;;4.82;;
70920;SDS011;58572;48.110;19.838;2022-09-09T05:11:16;12.43;;;4.40;;
70920;SDS011;58572;48.110;19.838;2022-09-09T05:13:44;8.57;;;4.60;;
70920;SDS011;58572;48.110;19.838;2022-09-09T05:16:12;11.82;;;4.93;;
70920;SDS011;58572;48.110;19.838;2022-09-09T05:18:41;9.27;;;4.47;;
70920;SDS011;58572;48.110;19.838;2022-09-09T05:21:09;7.55;;;4.10;;
70920;SDS011;58572;48.110;19.838;2022-09-09T05:23:37;8.40;;;4.32;;
70920;SDS011;58572;48.110;19.838;2022-09-09T05:28:33;7.93;;;4.05;;
70920;SDS011;58572;48.110;19.838;2022-09-09T05:31:02;6.75;;;3.90;;
70920;SDS011;58572;48.110;19.838;2022-09-09T05:33:34;9.25;;;3.65;;
70920;SDS011;58572;48.110;19.838;2022-09-09T05:36:04;8.32;;;4.10;;
70920;SDS011;58572;48.110;19.838;2022-09-09T05:38:33;8.68;;;4.03;;
70920;SDS011;58572;48.110;19.838;2022-09-09T05:41:01;8.77;;;4.35;;
70920;SDS011;58572;48.110;19.838;2022-09-09T05:43:29;6.85;;;3.70;;
70920;SDS011;58572;48.110;19.838;2022-09-09T05:46:00;7.28;;;4.32;;
70920;SDS011;58572;48.110;19.838;2022-09-09T05:48:30;6.50;;;4.13;;
70920;SDS011;58572;48.110;19.838;2022-09-09T05:50:59;7.07;;;3.70;;
70920;SDS011;58572;48.110;19.838;2022-09-09T05:53:28;7.30;;;4.15;;
70920;SDS011;58572;48.110;19.838;2022-09-09T05:55:59;7.65;;;4.57;;
70920;SDS011;58572;48.110;19.838;2022-09-09T05:58:28;8.25;;;4.47;;
70920;SDS011;58572;48.110;19.838;2022-09-09T06:01:02;11.20;;;4.70;;
70920;SDS011;58572;48.110;19.838;2022-09-09T06:03:31;9.50;;;4.47;;
70920;SDS011;58572;48.110;19.838;2022-09-09T06:06:00;8.98;;;3.80;;
70920;SDS011;58572;48.110;19.838;2022-09-09T06:08:32;6.60;;;3.95;;
70920;SDS011;58572;48.110;19.838;2022-09-09T06:11:02;7.45;;;3.55;;
70920;SDS011;58572;48.110;19.838;2022-09-09T06:13:31;4.70;;;2.95;;
70920;SDS011;58572;48.110;19.838;2022-09-09T06:15:58;6.93;;;3.42;;
70920;SDS011;58572;48.110;19.838;2022-09-09T06:18:26;6.32;;;3.72;;
70920;SDS011;58572;48.110;19.838;2022-09-09T06:20:55;5.35;;;3.28;;
70920;SDS011;58572;48.110;19.838;2022-09-09T06:23:23;5.50;;;3.20;;
70920;SDS011;58572;48.110;19.838;2022-09-09T06:25:59;5.63;;;3.55;;
70920;SDS011;58572;48.110;19.838;2022-09-09T06:28:28;6.28;;;3.70;;
70920;SDS011;58572;48.110;19.838;2022-09-09T06:30:57;5.10;;;3.15;;
70920;SDS011;58572;48.110;19.838;2022-09-09T06:33:25;6.05;;;3.30;;
70920;SDS011;58572;48.110;19.838;2022-09-09T06:35:53;5.00;;;3.28;;
70920;SDS011;58572;48.110;19.838;2022-09-09T06:38:22;5.82;;;3.42;;
70920;SDS011;58572;48.110;19.838;2022-09-09T06:40:54;6.65;;;4.35;;
70920;SDS011;58572;48.110;19.838;2022-09-09T06:43:23;5.55;;;3.63;;
70920;SDS011;58572;48.110;19.838;2022-09-09T06:45:54;6.53;;;3.58;;
70920;SDS011;58572;48.110;19.838;2022-09-09T06:48:22;6.30;;;3.42;;
70920;SDS011;58572;48.110;19.838;2022-09-09T06:50:51;5.75;;;3.53;;
70920;SDS011;58572;48.110;19.838;2022-09-09T06:53:19;5.57;;;3.67;;
70920;SDS011;58572;48.110;19.838;2022-09-09T06:55:46;6.78;;;3.70;;
70920;SDS011;58572;48.110;19.838;2022-09-09T06:58:15;6.45;;;3.53;;
70920;SDS011;58572;48.110;19.838;2022-09-09T07:00:42;6.13;;;3.83;;
70920;SDS011;58572;48.110;19.838;2022-09-09T07:03:09;5.25;;;3.58;;
70920;SDS011;58572;48.110;19.838;2022-09-09T07:05:37;6.18;;;3.60;;
70920;SDS011;58572;48.110;19.838;2022-09-09T07:08:04;6.95;;;4.20;;
70920;SDS011;58572;48.110;19.838;2022-09-09T07:12:59;6.35;;;3.35;;
70920;SDS011;58572;48.110;19.838;2022-09-09T07:15:28;5.57;;;3.45;;
70920;SDS011;58572;48.110;19.838;2022-09-09T07:18:00;6.57;;;3.65;;
70920;SDS011;58572;48.110;19.838;2022-09-09T07:20:28;5.30;;;3.83;;
70920;SDS011;58572;48.110;19.838;2022-09-09T07:22:55;5.68;;;3.30;;
70920;SDS011;58572;48.110;19.838;2022-09-09T07:25:23;4.75;;;3.40;;
70920;SDS011;58572;48.110;19.838;2022-09-09T07:27:52;7.72;;;4.57;;
70920;SDS011;58572;48.110;19.838;2022-09-09T07:30:19;8.35;;;4.38;;
70920;SDS011;58572;48.110;19.838;2022-09-09T07:32:50;5.63;;;4.10;;
70920;SDS011;58572;48.110;19.838;2022-09-09T07:35:17;7.22;;;4.38;;
70920;SDS011;58572;48.110;19.838;2022-09-09T07:37:45;9.40;;;4.35;;
70920;SDS011;58572;48.110;19.838;2022-09-09T07:40:12;8.07;;;4.57;;
70920;SDS011;58572;48.110;19.838;2022-09-09T07:42:40;5.50;;;3.63;;
70920;SDS011;58572;48.110;19.838;2022-09-09T07:45:07;6.65;;;4.13;;
70920;SDS011;58572;48.110;19.838;2022-09-09T07:47:34;9.85;;;4.63;;
70920;SDS011;58572;48.110;19.838;2022-09-09T07:50:03;6.13;;;4.40;;
70920;SDS011;58572;48.110;19.838;2022-09-09T07:52:31;5.72;;;4.05;;
70920;SDS011;58572;48.110;19.838;2022-09-09T07:55:01;9.55;;;4.43;;
70920;SDS011;58572;48.110;19.838;2022-09-09T07:57:29;5.43;;;3.83;;
70920;SDS011;58572;48.110;19.838;2022-09-09T08:02:23;6.50;;;4.00;;
70920;SDS011;58572;48.110;19.838;2022-09-09T08:04:54;8.80;;;4.13;;
70920;SDS011;58572;48.110;19.838;2022-09-09T08:07:23;7.72;;;4.40;;
70920;SDS011;58572;48.110;19.838;2022-09-09T08:09:50;8.85;;;6.18;;
70920;SDS011;58572;48.110;19.838;2022-09-09T08:12:17;8.88;;;5.78;;
70920;SDS011;58572;48.110;19.838;2022-09-09T08:14:44;9.10;;;5.18;;
70920;SDS011;58572;48.110;19.838;2022-09-09T08:17:11;9.05;;;5.55;;
70920;SDS011;58572;48.110;19.838;2022-09-09T08:19:38;8.73;;;5.25;;
70920;SDS011;58572;48.110;19.838;2022-09-09T08:22:05;9.90;;;5.30;;
70920;SDS011;58572;48.110;19.838;2022-09-09T08:24:34;9.48;;;5.55;;
70920;SDS011;58572;48.110;19.838;2022-09-09T08:27:01;8.38;;;4.68;;
70920;SDS011;58572;48.110;19.838;2022-09-09T08:31:56;10.18;;;5.68;;
70920;SDS011;58572;48.110;19.838;2022-09-09T08:34:25;9.43;;;5.55;;
70920;SDS011;58572;48.110;19.838;2022-09-09T08:36:53;8.07;;;6.15;;
70920;SDS011;58572;48.110;19.838;2022-09-09T08:39:21;10.48;;;6.32;;
70920;SDS011;58572;48.110;19.838;2022-09-09T08:41:54;14.02;;;6.63;;
70920;SDS011;58572;48.110;19.838;2022-09-09T08:44:44;9.40;;;5.70;;
70920;SDS011;58572;48.110;19.838;2022-09-09T08:47:22;10.98;;;5.57;;
70920;SDS011;58572;48.110;19.838;2022-09-09T08:50:01;8.40;;;5.03;;
70920;SDS011;58572;48.110;19.838;2022-09-09T08:52:36;8.52;;;5.28;;
70920;SDS011;58572;48.110;19.838;2022-09-09T08:55:12;8.93;;;5.45;;
70920;SDS011;58572;48.110;19.838;2022-09-09T08:57:51;14.40;;;5.82;;
70920;SDS011;58572;48.110;19.838;2022-09-09T09:00:20;9.75;;;5.38;;
70920;SDS011;58572;48.110;19.838;2022-09-09T09:02:53;8.20;;;5.50;;
70920;SDS011;58572;48.110;19.838;2022-09-09T09:05:31;8.68;;;4.35;;
70920;SDS011;58572;48.110;19.838;2022-09-09T09:08:05;8.73;;;4.65;;
70920;SDS011;58572;48.110;19.838;2022-09-09T09:10:44;10.43;;;5.68;;
70920;SDS011;58572;48.110;19.838;2022-09-09T09:13:15;7.38;;;5.43;;
70920;SDS011;58572;48.110;19.838;2022-09-09T09:15:47;7.13;;;4.45;;
70920;SDS011;58572;48.110;19.838;2022-09-09T09:18:18;7.25;;;4.57;;
70920;SDS011;58572;48.110;19.838;2022-09-09T09:20:49;10.32;;;4.65;;
70920;SDS011;58572;48.110;19.838;2022-09-09T09:23:21;7.70;;;4.88;;
70920;SDS011;58572;48.110;19.838;2022-09-09T09:25:50;6.85;;;4.00;;
70920;SDS011;58572;48.110;19.838;2022-09-09T09:28:25;8.30;;;4.55;;
70920;SDS011;58572;48.110;19.838;2022-09-09T09:30:55;7.85;;;4.82;;
70920;SDS011;58572;48.110;19.838;2022-09-09T09:33:28;10.02;;;4.68;;
70920;SDS011;58572;48.110;19.838;2022-09-09T09:36:01;8.60;;;5.30;;
70920;SDS011;58572;48.110;19.838;2022-09-09T09:38:29;7.72;;;4.55;;
70920;SDS011;58572;48.110;19.838;2022-09-09T09:40:56;8.05;;;4.97;;
70920;SDS011;58572;48.110;19.838;2022-09-09T09:43:28;7.72;;;4.40;;
70920;SDS011;58572;48.110;19.838;2022-09-09T09:45:56;8.10;;;4.53;;
70920;SDS011;58572;48.110;19.838;2022-09-09T09:48:24;7.20;;;4.00;;
70920;SDS011;58572;48.110;19.838;2022-09-09T09:50:52;7.50;;;3.47;;
70920;SDS011;58572;48.110;19.838;2022-09-09T09:53:23;7.38;;;3.63;;
70920;SDS011;58572;48.110;19.838;2022-09-09T09:55:53;5.00;;;3.00;;
70920;SDS011;58572;48.110;19.838;2022-09-09T09:58:22;6.97;;;3.40;;
70920;SDS011;58572;48.110;19.838;2022-09-09T10:00:53;5.55;;;3.38;;
70920;SDS011;58572;48.110;19.838;2022-09-09T10:03:24;6.28;;;3.60;;
70920;SDS011;58572;48.110;19.838;2022-09-09T10:05:53;6.72;;;3.50;;
70920;SDS011;58572;48.110;19.838;2022-09-09T10:08:21;7.28;;;4.53;;
70920;SDS011;58572;48.110;19.838;2022-09-09T10:13:46;5.57;;;3.70;;
70920;SDS011;58572;48.110;19.838;2022-09-09T10:16:25;7.63;;;3.38;;
70920;SDS011;58572;48.110;19.838;2022-09-09T10:19:05;5.15;;;3.38;;
70920;SDS011;58572;48.110;19.838;2022-09-09T10:21:42;4.20;;;2.72;;
70920;SDS011;58572;48.110;19.838;2022-09-09T10:27:23;5.30;;;3.15;;
70920;SDS011;58572;48.110;19.838;2022-09-09T10:30:05;5.25;;;2.80;;
70920;SDS011;58572;48.110;19.838;2022-09-09T10:32:46;4.63;;;2.70;;
70920;SDS011;58572;48.110;19.838;2022-09-09T10:35:37;5.00;;;2.63;;
70920;SDS011;58572;48.110;19.838;2022-09-09T10:40:46;6.10;;;2.55;;
70920;SDS011;58572;48.110;19.838;2022-09-09T10:43:35;3.50;;;2.28;;
70920;SDS011;58572;48.110;19.838;2022-09-09T10:48:48;5.20;;;2.30;;
70920;SDS011;58572;48.110;19.838;2022-09-09T10:51:31;4.63;;;2.63;;
70920;SDS011;58572;48.110;19.838;2022-09-09T10:56:56;4.88;;;2.75;;
70920;SDS011;58572;48.110;19.838;2022-09-09T10:59:31;4.95;;;2.78;;
70920;SDS011;58572;48.110;19.838;2022-09-09T11:02:05;3.45;;;2.45;;
70920;SDS011;58572;48.110;19.838;2022-09-09T11:04:41;3.97;;;2.42;;
70920;SDS011;58572;48.110;19.838;2022-09-09T11:07:12;4.65;;;2.83;;
70920;SDS011;58572;48.110;19.838;2022-09-09T11:12:17;4.38;;;2.50;;
70920;SDS011;58572;48.110;19.838;2022-09-09T11:14:47;4.38;;;2.58;;
70920;SDS011;58572;48.110;19.838;2022-09-09T11:17:20;6.25;;;2.60;;
70920;SDS011;58572;48.110;19.838;2022-09-09T11:19:52;3.50;;;2.40;;
70920;SDS011;58572;48.110;19.838;2022-09-09T11:22:23;5.97;;;2.78;;
70920;SDS011;58572;48.110;19.838;2022-09-09T11:24:57;5.25;;;2.35;;
70920;SDS011;58572;48.110;19.838;2022-09-09T11:27:31;4.32;;;2.67;;
70920;SDS011;58572;48.110;19.838;2022-09-09T11:30:11;5.95;;;2.45;;
70920;SDS011;58572;48.110;19.838;2022-09-09T11:40:54;3.42;;;2.00;;
70920;SDS011;58572;48.110;19.838;2022-09-09T11:43:26;3.50;;;2.42;;
70920;SDS011;58572;48.110;19.838;2022-09-09T11:45:56;6.32;;;2.15;;
70920;SDS011;58572;48.110;19.838;2022-09-09T11:48:29;4.50;;;2.28;;
70920;SDS011;58572;48.110;19.838;2022-09-09T11:51:02;3.47;;;2.33;;
70920;SDS011;58572;48.110;19.838;2022-09-09T11:53:34;4.05;;;2.42;;
70920;SDS011;58572;48.110;19.838;2022-09-09T11:56:03;3.60;;;2.08;;
70920;SDS011;58572;48.110;19.838;2022-09-09T11:58:41;3.63;;;2.15;;
70920;SDS011;58572;48.110;19.838;2022-09-09T12:01:14;3.70;;;2.10;;
70920;SDS011;58572;48.110;19.838;2022-09-09T12:03:55;3.70;;;2.10;;
70920;SDS011;58572;48.110;19.838;2022-09-09T12:06:54;4.28;;;1.92;;
70920;SDS011;58572;48.110;19.838;2022-09-09T12:12:22;5.45;;;2.20;;
70920;SDS011;58572;48.110;19.838;2022-09-09T12:14:55;4.55;;;2.20;;
70920;SDS011;58572;48.110;19.838;2022-09-09T12:17:26;3.88;;;1.85;;
70920;SDS011;58572;48.110;19.838;2022-09-09T12:20:02;4.30;;;2.03;;
70920;SDS011;58572;48.110;19.838;2022-09-09T12:22:38;3.50;;;1.90;;
70920;SDS011;58572;48.110;19.838;2022-09-09T12:25:16;4.97;;;2.03;;
70920;SDS011;58572;48.110;19.838;2022-09-09T12:27:56;4.40;;;1.92;;
70920;SDS011;58572;48.110;19.838;2022-09-09T12:30:29;3.42;;;1.90;;
70920;SDS011;58572;48.110;19.838;2022-09-09T12:33:02;3.03;;;1.85;;
70920;SDS011;58572;48.110;19.838;2022-09-09T12:35:37;4.40;;;1.90;;
70920;SDS011;58572;48.110;19.838;2022-09-09T12:38:07;3.05;;;2.13;;
70920;SDS011;58572;48.110;19.838;2022-09-09T12:40:40;2.83;;;1.90;;
70920;SDS011;58572;48.110;19.838;2022-09-09T12:43:21;3.30;;;1.83;;
70920;SDS011;58572;48.110;19.838;2022-09-09T12:45:49;3.83;;;2.28;;
70920;SDS011;58572;48.110;19.838;2022-09-09T12:48:24;3.38;;;1.80;;
70920;SDS011;58572;48.110;19.838;2022-09-09T12:50:56;3.80;;;2.08;;
70920;SDS011;58572;48.110;19.838;2022-09-09T12:53:26;4.63;;;2.03;;
70920;SDS011;58572;48.110;19.838;2022-09-09T12:55:57;3.67;;;2.25;;
70920;SDS011;58572;48.110;19.838;2022-09-09T12:58:27;3.42;;;2.15;;
70920;SDS011;58572;48.110;19.838;2022-09-09T13:00:58;5.82;;;2.40;;
70920;SDS011;58572;48.110;19.838;2022-09-09T13:03:26;3.28;;;2.03;;
70920;SDS011;58572;48.110;19.838;2022-09-09T13:05:57;7.10;;;2.30;;
70920;SDS011;58572;48.110;19.838;2022-09-09T13:08:27;3.42;;;2.10;;
70920;SDS011;58572;48.110;19.838;2022-09-09T13:10:56;3.85;;;2.10;;
70920;SDS011;58572;48.110;19.838;2022-09-09T13:13:38;5.03;;;2.03;;
70920;SDS011;58572;48.110;19.838;2022-09-09T13:16:06;6.45;;;1.92;;
70920;SDS011;58572;48.110;19.838;2022-09-09T13:18:46;4.15;;;1.90;;
70920;SDS011;58572;48.110;19.838;2022-09-09T13:23:42;5.80;;;2.10;;
70920;SDS011;58572;48.110;19.838;2022-09-09T13:26:21;3.30;;;1.95;;
70920;SDS011;58572;48.110;19.838;2022-09-09T13:28:49;3.67;;;1.77;;
70920;SDS011;58572;48.110;19.838;2022-09-09T13:31:21;4.38;;;2.17;;
70920;SDS011;58572;48.110;19.838;2022-09-09T13:33:52;4.18;;;2.20;;
70920;SDS011;58572;48.110;19.838;2022-09-09T13:36:27;5.18;;;2.15;;
70920;SDS011;58572;48.110;19.838;2022-09-09T13:38:59;5.20;;;2.15;;
70920;SDS011;58572;48.110;19.838;2022-09-09T13:41:29;4.55;;;2.17;;
70920;SDS011;58572;48.110;19.838;2022-09-09T13:43:59;4.88;;;2.40;;
70920;SDS011;58572;48.110;19.838;2022-09-09T13:46:32;4.68;;;2.10;;
70920;SDS011;58572;48.110;19.838;2022-09-09T13:49:02;4.93;;;2.05;;
70920;SDS011;58572;48.110;19.838;2022-09-09T13:51:45;3.70;;;2.20;;
70920;SDS011;58572;48.110;19.838;2022-09-09T13:54:16;5.63;;;2.40;;
70920;SDS011;58572;48.110;19.838;2022-09-09T13:56:45;6.18;;;2.72;;
70920;SDS011;58572;48.110;19.838;2022-09-09T13:59:15;6.25;;;2.70;;
70920;SDS011;58572;48.110;19.838;2022-09-09T14:01:44;6.28;;;2.30;;
70920;SDS011;58572;48.110;19.838;2022-09-09T14:04:12;5.13;;;2.30;;
70920;SDS011;58572;48.110;19.838;2022-09-09T14:06:41;4.85;;;2.42;;
70920;SDS011;58572;48.110;19.838;2022-09-09T14:09:13;5.10;;;2.67;;
70920;SDS011;58572;48.110;19.838;2022-09-09T14:11:43;5.80;;;2.78;;
70920;SDS011;58572;48.110;19.838;2022-09-09T14:14:11;5.72;;;2.60;;
70920;SDS011;58572;48.110;19.838;2022-09-09T14:19:05;5.18;;;2.55;;
70920;SDS011;58572;48.110;19.838;2022-09-09T14:21:35;4.68;;;2.72;;
70920;SDS011;58572;48.110;19.838;2022-09-09T14:24:02;6.03;;;2.72;;
70920;SDS011;58572;48.110;19.838;2022-09-09T14:26:29;3.97;;;2.60;;
70920;SDS011;58572;48.110;19.838;2022-09-09T14:28:59;6.85;;;2.80;;
70920;SDS011;58572;48.110;19.838;2022-09-09T14:31:27;4.95;;;2.72;;
70920;SDS011;58572;48.110;19.838;2022-09-09T14:33:54;7.20;;;3.00;;
70920;SDS011;58572;48.110;19.838;2022-09-09T14:38:49;6.93;;;2.28;;
70920;SDS011;58572;48.110;19.838;2022-09-09T14:41:20;6.47;;;2.70;;
70920;SDS011;58572;48.110;19.838;2022-09-09T14:43:48;7.55;;;2.40;;
70920;SDS011;58572;48.110;19.838;2022-09-09T14:46:19;5.53;;;2.33;;
70920;SDS011;58572;48.110;19.838;2022-09-09T14:48:47;3.60;;;2.50;;
70920;SDS011;58572;48.110;19.838;2022-09-09T14:51:15;6.57;;;2.45;;
70920;SDS011;58572;48.110;19.838;2022-09-09T14:53:44;4.55;;;2.95;;
70920;SDS011;58572;48.110;19.838;2022-09-09T14:56:13;7.57;;;2.88;;
70920;SDS011;58572;48.110;19.838;2022-09-09T14:58:42;7.15;;;2.90;;
70920;SDS011;58572;48.110;19.838;2022-09-09T15:01:10;4.70;;;3.03;;
70920;SDS011;58572;48.110;19.838;2022-09-09T15:03:41;5.75;;;3.10;;
70920;SDS011;58572;48.110;19.838;2022-09-09T15:06:10;5.05;;;2.70;;
70920;SDS011;58572;48.110;19.838;2022-09-09T15:08:39;5.68;;;3.13;;
70920;SDS011;58572;48.110;19.838;2022-09-09T15:11:08;10.23;;;3.20;;
70920;SDS011;58572;48.110;19.838;2022-09-09T15:13:37;6.20;;;2.88;;
70920;SDS011;58572;48.110;19.838;2022-09-09T15:16:06;7.10;;;3.05;;
70920;SDS011;58572;48.110;19.838;2022-09-09T15:18:34;5.57;;;2.85;;
70920;SDS011;58572;48.110;19.838;2022-09-09T15:21:09;10.65;;;3.63;;
70920;SDS011;58572;48.110;19.838;2022-09-09T15:23:37;13.15;;;3.80;;
70920;SDS011;58572;48.110;19.838;2022-09-09T15:26:06;5.03;;;3.38;;
70920;SDS011;58572;48.110;19.838;2022-09-09T15:28:34;9.98;;;3.42;;
70920;SDS011;58572;48.110;19.838;2022-09-09T15:31:04;9.65;;;3.22;;
70920;SDS011;58572;48.110;19.838;2022-09-09T15:33:33;5.75;;;3.33;;
70920;SDS011;58572;48.110;19.838;2022-09-09T15:36:13;8.50;;;3.38;;
70920;SDS011;58572;48.110;19.838;2022-09-09T15:38:43;7.72;;;2.90;;
70920;SDS011;58572;48.110;19.838;2022-09-09T15:41:19;7.10;;;3.30;;
70920;SDS011;58572;48.110;19.838;2022-09-09T15:43:48;7.72;;;2.85;;
70920;SDS011;58572;48.110;19.838;2022-09-09T15:46:25;9.95;;;2.95;;
70920;SDS011;58572;48.110;19.838;2022-09-09T15:48:58;4.32;;;2.83;;
70920;SDS011;58572;48.110;19.838;2022-09-09T15:51:31;8.95;;;3.15;;
70920;SDS011;58572;48.110;19.838;2022-09-09T15:53:58;10.13;;;3.10;;
70920;SDS011;58572;48.110;19.838;2022-09-09T15:56:27;5.25;;;2.90;;
70920;SDS011;58572;48.110;19.838;2022-09-09T15:58:56;10.65;;;3.08;;
70920;SDS011;58572;48.110;19.838;2022-09-09T16:01:24;5.97;;;2.75;;
70920;SDS011;58572;48.110;19.838;2022-09-09T16:03:52;7.70;;;2.83;;